TQS weather

Tres Esquinas Air Base
Tres Esquinas, Caquetá Department, Colombia

Public forecast

Using degrees Celsius for public forecast. Weather courtesy of forecast.io.

METAR (pilot weather report)

Report is more than 6 hours old.

Closest report is Gustavo Artunduaga Paredes Airport, 54.4 nm (100.7 km) NNW. Retrieved 2019/08/02 20:00 UTC (17 days ago):

SKFL 022000Z 00000KT 9999 FEW030 BKN080 32/23 A2988

TAF (pilot weather forecast)

Forecast is more than 12 hours old.

Closest forecast is Nueva Loja Airport, 105.6 nm (195.6 km) WSW. Retrieved 2018/09/09 12:03 UTC (11 months ago):

TAF TAF SCDA 091040Z 0912/1012 19004KT 9999 OVC020 TX18/0917Z TN16/1006ZLVA0571 091200 GG EBBRYZYX EBBRYZYZ EGGYYBYA KMKMYTYX KWBCYMYX MPLBYFYX MPTOYMYX 091200 SEQUYZYX SAEQ01 SEQU 091200 RRB METAR SENL 091200Z 36002KT 9999 SCT030 BKN100 22/21 Q1013 RMK A2994